sensor_id;sensor_type;location;lat;lon;timestamp;pressure;altitude;pressure_sealevel;temperature;humidity
63654;BME280;49809;47.418;19.080;2022-12-11T00:01:14;98401.03;;;3.47;100.00
63654;BME280;49809;47.418;19.080;2022-12-11T00:04:20;98403.66;;;3.47;100.00
63654;BME280;49809;47.418;19.080;2022-12-11T00:07:25;98399.41;;;3.41;100.00
63654;BME280;49809;47.418;19.080;2022-12-11T00:10:28;98389.94;;;3.35;100.00
63654;BME280;49809;47.418;19.080;2022-12-11T00:13:41;98387.56;;;3.28;100.00
63654;BME280;49809;47.418;19.080;2022-12-11T00:16:46;98395.66;;;3.27;100.00
63654;BME280;49809;47.418;19.080;2022-12-11T00:19:49;98388.03;;;3.25;100.00
63654;BME280;49809;47.418;19.080;2022-12-11T00:22:53;98378.09;;;3.22;100.00
63654;BME280;49809;47.418;19.080;2022-12-11T00:25:55;98375.72;;;3.21;100.00
63654;BME280;49809;47.418;19.080;2022-12-11T00:28:58;98383.00;;;3.14;100.00
63654;BME280;49809;47.418;19.080;2022-12-11T00:32:01;98379.31;;;3.10;100.00
63654;BME280;49809;47.418;19.080;2022-12-11T00:35:05;98377.19;;;3.06;100.00
63654;BME280;49809;47.418;19.080;2022-12-11T00:38:16;98377.47;;;3.10;100.00
63654;BME280;49809;47.418;19.080;2022-12-11T00:41:20;98367.78;;;3.11;100.00
63654;BME280;49809;47.418;19.080;2022-12-11T00:44:23;98370.91;;;3.08;100.00
63654;BME280;49809;47.418;19.080;2022-12-11T00:47:27;98372.19;;;3.05;100.00
63654;BME280;49809;47.418;19.080;2022-12-11T00:50:30;98375.00;;;2.93;100.00
63654;BME280;49809;47.418;19.080;2022-12-11T00:53:33;98383.34;;;2.90;100.00
63654;BME280;49809;47.418;19.080;2022-12-11T00:56:36;98375.50;;;2.90;100.00
63654;BME280;49809;47.418;19.080;2022-12-11T00:59:39;98386.44;;;2.87;100.00
63654;BME280;49809;47.418;19.080;2022-12-11T01:02:42;98389.00;;;2.82;100.00
63654;BME280;49809;47.418;19.080;2022-12-11T01:05:54;98379.88;;;2.85;100.00
63654;BME280;49809;47.418;19.080;2022-12-11T01:08:56;98376.19;;;2.81;100.00
63654;BME280;49809;47.418;19.080;2022-12-11T01:12:18;98385.53;;;2.77;100.00
63654;BME280;49809;47.418;19.080;2022-12-11T01:15:22;98403.59;;;2.78;100.00
63654;BME280;49809;47.418;19.080;2022-12-11T01:18:26;98402.59;;;2.84;100.00
63654;BME280;49809;47.418;19.080;2022-12-11T01:21:29;98398.25;;;2.68;100.00
63654;BME280;49809;47.418;19.080;2022-12-11T01:24:32;98401.91;;;2.67;100.00
63654;BME280;49809;47.418;19.080;2022-12-11T01:27:36;98399.13;;;2.52;100.00
63654;BME280;49809;47.418;19.080;2022-12-11T01:30:43;98406.94;;;2.47;100.00
63654;BME280;49809;47.418;19.080;2022-12-11T01:33:45;98415.53;;;2.47;100.00
63654;BME280;49809;47.418;19.080;2022-12-11T01:36:50;98416.75;;;2.40;100.00
63654;BME280;49809;47.418;19.080;2022-12-11T01:39:53;98416.47;;;2.36;100.00
63654;BME280;49809;47.418;19.080;2022-12-11T01:42:57;98401.41;;;2.22;100.00
63654;BME280;49809;47.418;19.080;2022-12-11T01:46:01;98406.38;;;2.23;100.00
63654;BME280;49809;47.418;19.080;2022-12-11T01:49:10;98417.59;;;2.24;100.00
63654;BME280;49809;47.418;19.080;2022-12-11T01:52:18;98416.50;;;2.19;100.00
63654;BME280;49809;47.418;19.080;2022-12-11T01:55:22;98420.81;;;2.09;100.00
63654;BME280;49809;47.418;19.080;2022-12-11T01:58:30;98431.09;;;2.15;100.00
63654;BME280;49809;47.418;19.080;2022-12-11T02:01:39;98424.22;;;2.09;100.00
63654;BME280;49809;47.418;19.080;2022-12-11T02:04:44;98429.94;;;2.06;100.00
63654;BME280;49809;47.418;19.080;2022-12-11T02:08:06;98424.34;;;1.98;100.00
63654;BME280;49809;47.418;19.080;2022-12-11T02:11:15;98416.13;;;1.89;100.00
63654;BME280;49809;47.418;19.080;2022-12-11T02:21:31;98441.03;;;1.80;100.00
63654;BME280;49809;47.418;19.080;2022-12-11T02:28:21;98426.91;;;1.76;100.00
63654;BME280;49809;47.418;19.080;2022-12-11T02:35:06;98422.53;;;1.98;100.00
63654;BME280;49809;47.418;19.080;2022-12-11T02:38:12;98418.66;;;1.84;100.00
63654;BME280;49809;47.418;19.080;2022-12-11T02:41:19;98412.19;;;1.87;100.00
63654;BME280;49809;47.418;19.080;2022-12-11T02:44:28;98408.28;;;1.89;100.00
63654;BME280;49809;47.418;19.080;2022-12-11T02:47:32;98414.06;;;1.91;100.00
63654;BME280;49809;47.418;19.080;2022-12-11T02:50:38;98419.16;;;1.81;100.00
63654;BME280;49809;47.418;19.080;2022-12-11T02:53:45;98408.00;;;1.86;100.00
63654;BME280;49809;47.418;19.080;2022-12-11T02:56:53;98416.75;;;1.96;100.00
63654;BME280;49809;47.418;19.080;2022-12-11T02:59:58;98415.81;;;1.86;100.00
63654;BME280;49809;47.418;19.080;2022-12-11T03:03:03;98408.06;;;1.91;100.00
63654;BME280;49809;47.418;19.080;2022-12-11T03:06:08;98412.97;;;1.87;100.00
63654;BME280;49809;47.418;19.080;2022-12-11T03:09:13;98395.84;;;1.74;100.00
63654;BME280;49809;47.418;19.080;2022-12-11T03:12:27;98386.59;;;1.67;100.00
63654;BME280;49809;47.418;19.080;2022-12-11T03:22:11;98398.63;;;1.68;100.00
63654;BME280;49809;47.418;19.080;2022-12-11T03:25:25;98404.00;;;1.61;100.00
63654;BME280;49809;47.418;19.080;2022-12-11T03:28:37;98405.50;;;1.57;100.00
63654;BME280;49809;47.418;19.080;2022-12-11T03:31:53;98404.19;;;1.55;100.00
63654;BME280;49809;47.418;19.080;2022-12-11T03:35:19;98406.38;;;1.46;100.00
63654;BME280;49809;47.418;19.080;2022-12-11T03:38:47;98392.47;;;1.41;100.00
63654;BME280;49809;47.418;19.080;2022-12-11T03:41:51;98388.84;;;1.42;100.00
63654;BME280;49809;47.418;19.080;2022-12-11T03:44:57;98401.09;;;1.41;100.00
63654;BME280;49809;47.418;19.080;2022-12-11T03:48:01;98401.00;;;1.36;100.00
63654;BME280;49809;47.418;19.080;2022-12-11T03:51:08;98405.78;;;1.39;100.00
63654;BME280;49809;47.418;19.080;2022-12-11T03:54:11;98401.81;;;1.37;100.00
63654;BME280;49809;47.418;19.080;2022-12-11T03:57:17;98400.84;;;1.43;100.00
63654;BME280;49809;47.418;19.080;2022-12-11T04:00:22;98406.47;;;1.35;100.00
63654;BME280;49809;47.418;19.080;2022-12-11T04:03:28;98408.53;;;1.33;100.00
63654;BME280;49809;47.418;19.080;2022-12-11T04:06:33;98413.50;;;1.34;100.00
63654;BME280;49809;47.418;19.080;2022-12-11T04:09:36;98418.06;;;1.27;100.00
63654;BME280;49809;47.418;19.080;2022-12-11T04:12:39;98423.13;;;1.34;100.00
63654;BME280;49809;47.418;19.080;2022-12-11T04:15:46;98413.19;;;1.30;100.00
63654;BME280;49809;47.418;19.080;2022-12-11T04:18:53;98416.13;;;1.34;100.00
63654;BME280;49809;47.418;19.080;2022-12-11T04:22:18;98418.72;;;1.34;100.00
63654;BME280;49809;47.418;19.080;2022-12-11T04:25:40;98426.62;;;1.39;100.00
63654;BME280;49809;47.418;19.080;2022-12-11T04:28:47;98433.41;;;1.40;100.00
63654;BME280;49809;47.418;19.080;2022-12-11T04:31:55;98442.97;;;1.35;100.00
63654;BME280;49809;47.418;19.080;2022-12-11T04:34:58;98434.50;;;1.27;100.00
63654;BME280;49809;47.418;19.080;2022-12-11T04:38:03;98439.63;;;1.22;100.00
63654;BME280;49809;47.418;19.080;2022-12-11T04:41:12;98443.03;;;1.23;100.00
63654;BME280;49809;47.418;19.080;2022-12-11T04:44:17;98454.81;;;1.25;100.00
63654;BME280;49809;47.418;19.080;2022-12-11T04:47:22;98456.78;;;1.18;100.00
63654;BME280;49809;47.418;19.080;2022-12-11T04:50:25;98466.22;;;1.08;100.00
63654;BME280;49809;47.418;19.080;2022-12-11T04:53:31;98472.09;;;1.15;100.00
63654;BME280;49809;47.418;19.080;2022-12-11T04:56:33;98478.31;;;1.14;100.00
63654;BME280;49809;47.418;19.080;2022-12-11T04:59:36;98481.50;;;1.16;100.00
63654;BME280;49809;47.418;19.080;2022-12-11T05:02:40;98481.72;;;1.14;100.00
63654;BME280;49809;47.418;19.080;2022-12-11T05:05:50;98481.41;;;1.11;100.00
63654;BME280;49809;47.418;19.080;2022-12-11T05:08:59;98500.19;;;1.13;100.00
63654;BME280;49809;47.418;19.080;2022-12-11T05:12:02;98509.78;;;1.24;100.00
63654;BME280;49809;47.418;19.080;2022-12-11T05:15:05;98499.03;;;1.20;100.00
63654;BME280;49809;47.418;19.080;2022-12-11T05:18:08;98496.88;;;1.17;100.00
63654;BME280;49809;47.418;19.080;2022-12-11T05:21:12;98493.72;;;1.15;100.00
63654;BME280;49809;47.418;19.080;2022-12-11T05:24:16;98505.66;;;1.28;100.00
63654;BME280;49809;47.418;19.080;2022-12-11T05:27:20;98510.94;;;1.16;100.00
63654;BME280;49809;47.418;19.080;2022-12-11T05:30:23;98514.41;;;1.05;100.00
63654;BME280;49809;47.418;19.080;2022-12-11T05:33:27;98507.31;;;1.17;100.00
63654;BME280;49809;47.418;19.080;2022-12-11T05:36:33;98505.19;;;1.14;100.00
63654;BME280;49809;47.418;19.080;2022-12-11T05:39:43;98500.50;;;1.16;100.00
63654;BME280;49809;47.418;19.080;2022-12-11T05:42:48;98501.47;;;1.10;100.00
63654;BME280;49809;47.418;19.080;2022-12-11T05:45:51;98507.56;;;1.16;100.00
63654;BME280;49809;47.418;19.080;2022-12-11T05:49:00;98507.13;;;1.07;100.00
63654;BME280;49809;47.418;19.080;2022-12-11T05:52:03;98501.81;;;1.02;100.00
63654;BME280;49809;47.418;19.080;2022-12-11T05:55:06;98505.97;;;1.15;100.00
63654;BME280;49809;47.418;19.080;2022-12-11T05:58:12;98506.19;;;1.13;100.00
63654;BME280;49809;47.418;19.080;2022-12-11T06:01:18;98522.75;;;1.07;100.00
63654;BME280;49809;47.418;19.080;2022-12-11T06:04:22;98531.63;;;1.06;100.00
63654;BME280;49809;47.418;19.080;2022-12-11T06:07:24;98528.53;;;1.09;100.00
63654;BME280;49809;47.418;19.080;2022-12-11T06:10:27;98539.97;;;1.08;100.00
63654;BME280;49809;47.418;19.080;2022-12-11T06:13:30;98553.91;;;1.02;100.00
63654;BME280;49809;47.418;19.080;2022-12-11T06:16:33;98567.91;;;0.96;100.00
63654;BME280;49809;47.418;19.080;2022-12-11T06:19:36;98566.41;;;1.00;100.00
63654;BME280;49809;47.418;19.080;2022-12-11T06:22:41;98575.34;;;1.04;100.00
63654;BME280;49809;47.418;19.080;2022-12-11T06:25:43;98583.53;;;0.96;100.00
63654;BME280;49809;47.418;19.080;2022-12-11T06:28:47;98578.31;;;0.96;100.00
63654;BME280;49809;47.418;19.080;2022-12-11T06:31:52;98582.03;;;1.00;100.00
63654;BME280;49809;47.418;19.080;2022-12-11T06:34:55;98588.97;;;0.95;100.00
63654;BME280;49809;47.418;19.080;2022-12-11T06:37:58;98596.66;;;1.01;100.00
63654;BME280;49809;47.418;19.080;2022-12-11T06:41:02;98593.94;;;0.96;100.00
63654;BME280;49809;47.418;19.080;2022-12-11T06:44:05;98595.88;;;1.01;100.00
63654;BME280;49809;47.418;19.080;2022-12-11T06:47:08;98596.56;;;0.96;100.00
63654;BME280;49809;47.418;19.080;2022-12-11T06:50:13;98608.53;;;0.97;100.00
63654;BME280;49809;47.418;19.080;2022-12-11T06:53:18;98613.41;;;1.05;100.00
63654;BME280;49809;47.418;19.080;2022-12-11T06:56:21;98622.13;;;0.99;100.00
63654;BME280;49809;47.418;19.080;2022-12-11T06:59:25;98621.44;;;1.04;100.00
63654;BME280;49809;47.418;19.080;2022-12-11T07:02:30;98635.97;;;1.00;100.00
63654;BME280;49809;47.418;19.080;2022-12-11T07:05:33;98610.69;;;1.00;100.00
63654;BME280;49809;47.418;19.080;2022-12-11T07:08:38;98611.72;;;0.99;100.00
63654;BME280;49809;47.418;19.080;2022-12-11T07:11:41;98607.84;;;1.02;100.00
63654;BME280;49809;47.418;19.080;2022-12-11T07:14:46;98628.56;;;1.08;100.00
63654;BME280;49809;47.418;19.080;2022-12-11T07:17:48;98620.31;;;1.11;100.00
63654;BME280;49809;47.418;19.080;2022-12-11T07:20:52;98611.09;;;1.20;100.00
63654;BME280;49809;47.418;19.080;2022-12-11T07:23:54;98622.37;;;1.26;100.00
63654;BME280;49809;47.418;19.080;2022-12-11T07:26:59;98622.37;;;1.38;100.00
63654;BME280;49809;47.418;19.080;2022-12-11T07:30:02;98609.56;;;1.36;100.00
63654;BME280;49809;47.418;19.080;2022-12-11T07:33:05;98619.28;;;1.41;100.00
63654;BME280;49809;47.418;19.080;2022-12-11T07:36:14;98613.06;;;1.42;100.00
63654;BME280;49809;47.418;19.080;2022-12-11T07:39:17;98625.25;;;1.53;100.00
63654;BME280;49809;47.418;19.080;2022-12-11T07:42:20;98634.75;;;1.59;100.00
63654;BME280;49809;47.418;19.080;2022-12-11T07:45:22;98650.41;;;1.59;100.00
63654;BME280;49809;47.418;19.080;2022-12-11T07:48:29;98656.25;;;1.66;100.00
63654;BME280;49809;47.418;19.080;2022-12-11T07:51:34;98672.38;;;1.63;100.00
63654;BME280;49809;47.418;19.080;2022-12-11T07:54:40;98671.47;;;1.69;100.00
63654;BME280;49809;47.418;19.080;2022-12-11T07:57:42;98684.03;;;1.72;100.00
63654;BME280;49809;47.418;19.080;2022-12-11T08:00:50;98701.16;;;1.68;100.00
63654;BME280;49809;47.418;19.080;2022-12-11T08:03:56;98704.41;;;1.75;100.00
63654;BME280;49809;47.418;19.080;2022-12-11T08:06:59;98710.84;;;1.84;100.00
63654;BME280;49809;47.418;19.080;2022-12-11T08:10:07;98727.56;;;1.71;99.62
63654;BME280;49809;47.418;19.080;2022-12-11T08:13:12;98734.47;;;1.78;99.20
63654;BME280;49809;47.418;19.080;2022-12-11T08:16:17;98746.25;;;1.80;99.06
63654;BME280;49809;47.418;19.080;2022-12-11T08:19:20;98763.75;;;1.68;99.47
63654;BME280;49809;47.418;19.080;2022-12-11T08:22:30;98769.53;;;1.70;98.64
63654;BME280;49809;47.418;19.080;2022-12-11T08:25:50;98770.19;;;1.77;99.14
63654;BME280;49809;47.418;19.080;2022-12-11T08:28:59;98773.66;;;1.94;99.07
63654;BME280;49809;47.418;19.080;2022-12-11T08:32:03;98760.97;;;1.86;97.84
63654;BME280;49809;47.418;19.080;2022-12-11T08:35:13;98764.00;;;1.95;97.67
63654;BME280;49809;47.418;19.080;2022-12-11T08:38:16;98764.38;;;1.98;97.25
63654;BME280;49809;47.418;19.080;2022-12-11T08:41:31;98772.69;;;1.84;99.29
63654;BME280;49809;47.418;19.080;2022-12-11T08:44:34;98776.34;;;1.99;97.81
63654;BME280;49809;47.418;19.080;2022-12-11T08:47:37;98788.44;;;1.89;96.87
63654;BME280;49809;47.418;19.080;2022-12-11T08:50:40;98792.59;;;2.01;97.93
63654;BME280;49809;47.418;19.080;2022-12-11T08:53:42;98796.91;;;1.96;99.08
63654;BME280;49809;47.418;19.080;2022-12-11T08:56:46;98797.25;;;1.99;97.36
63654;BME280;49809;47.418;19.080;2022-12-11T08:59:49;98799.06;;;1.99;97.35
63654;BME280;49809;47.418;19.080;2022-12-11T09:02:52;98814.50;;;2.00;95.63
63654;BME280;49809;47.418;19.080;2022-12-11T09:05:56;98805.63;;;2.01;95.71
63654;BME280;49809;47.418;19.080;2022-12-11T09:08:59;98812.25;;;1.92;97.18
63654;BME280;49809;47.418;19.080;2022-12-11T09:12:03;98822.22;;;1.95;96.33
63654;BME280;49809;47.418;19.080;2022-12-11T09:15:06;98813.38;;;1.96;97.05
63654;BME280;49809;47.418;19.080;2022-12-11T09:18:10;98810.75;;;1.96;96.69
63654;BME280;49809;47.418;19.080;2022-12-11T09:21:14;98806.81;;;1.82;95.40
63654;BME280;49809;47.418;19.080;2022-12-11T09:24:18;98807.03;;;1.92;94.76
63654;BME280;49809;47.418;19.080;2022-12-11T09:27:21;98821.59;;;1.77;95.70
63654;BME280;49809;47.418;19.080;2022-12-11T09:30:25;98819.97;;;1.87;96.76
63654;BME280;49809;47.418;19.080;2022-12-11T09:33:27;98821.66;;;1.93;96.27
63654;BME280;49809;47.418;19.080;2022-12-11T09:36:31;98818.00;;;2.06;95.71
63654;BME280;49809;47.418;19.080;2022-12-11T09:39:33;98816.19;;;2.06;95.80
63654;BME280;49809;47.418;19.080;2022-12-11T09:42:56;98814.22;;;2.13;94.28
63654;BME280;49809;47.418;19.080;2022-12-11T09:46:04;98802.53;;;2.16;93.61
63654;BME280;49809;47.418;19.080;2022-12-11T09:49:33;98802.63;;;2.21;93.86
63654;BME280;49809;47.418;19.080;2022-12-11T09:56:04;98804.41;;;2.49;93.05
63654;BME280;49809;47.418;19.080;2022-12-11T10:06:02;98782.91;;;2.58;92.16
63654;BME280;49809;47.418;19.080;2022-12-11T10:09:34;98778.12;;;2.39;92.19
63654;BME280;49809;47.418;19.080;2022-12-11T10:12:59;98784.38;;;2.38;91.95
63654;BME280;49809;47.418;19.080;2022-12-11T10:16:32;98782.31;;;2.40;91.21
63654;BME280;49809;47.418;19.080;2022-12-11T10:19:38;98805.91;;;2.45;90.79
63654;BME280;49809;47.418;19.080;2022-12-11T10:22:43;98809.94;;;2.36;91.13
63654;BME280;49809;47.418;19.080;2022-12-11T10:25:51;98829.34;;;2.40;90.28
63654;BME280;49809;47.418;19.080;2022-12-11T10:28:58;98836.25;;;2.17;90.50
63654;BME280;49809;47.418;19.080;2022-12-11T10:32:03;98831.28;;;2.33;91.46
63654;BME280;49809;47.418;19.080;2022-12-11T10:35:19;98824.41;;;2.27;91.52
63654;BME280;49809;47.418;19.080;2022-12-11T10:38:37;98810.78;;;2.25;90.07
63654;BME280;49809;47.418;19.080;2022-12-11T10:41:59;98814.91;;;2.37;90.67
63654;BME280;49809;47.418;19.080;2022-12-11T10:45:02;98816.47;;;2.22;89.93
63654;BME280;49809;47.418;19.080;2022-12-11T10:48:09;98836.56;;;2.21;90.71
63654;BME280;49809;47.418;19.080;2022-12-11T10:51:13;98840.50;;;2.24;91.51
63654;BME280;49809;47.418;19.080;2022-12-11T10:54:37;98843.97;;;2.12;91.49
63654;BME280;49809;47.418;19.080;2022-12-11T10:57:43;98855.16;;;2.25;92.26
63654;BME280;49809;47.418;19.080;2022-12-11T11:01:09;98856.53;;;2.27;91.73
63654;BME280;49809;47.418;19.080;2022-12-11T11:04:14;98844.28;;;2.16;90.74
63654;BME280;49809;47.418;19.080;2022-12-11T11:07:23;98838.94;;;2.23;91.47
63654;BME280;49809;47.418;19.080;2022-12-11T11:10:27;98841.06;;;2.26;91.43
63654;BME280;49809;47.418;19.080;2022-12-11T11:13:30;98838.16;;;2.22;91.20
63654;BME280;49809;47.418;19.080;2022-12-11T11:16:35;98838.47;;;2.26;90.50
63654;BME280;49809;47.418;19.080;2022-12-11T11:19:38;98827.50;;;2.12;90.73
63654;BME280;49809;47.418;19.080;2022-12-11T11:23:02;98830.53;;;2.21;91.00
63654;BME280;49809;47.418;19.080;2022-12-11T11:26:07;98826.44;;;2.25;90.33
63654;BME280;49809;47.418;19.080;2022-12-11T11:29:31;98819.91;;;2.39;91.15
63654;BME280;49809;47.418;19.080;2022-12-11T11:32:57;98822.84;;;2.42;90.04
63654;BME280;49809;47.418;19.080;2022-12-11T11:36:06;98842.69;;;2.43;89.85
63654;BME280;49809;47.418;19.080;2022-12-11T11:46:03;98855.16;;;2.53;89.38
63654;BME280;49809;47.418;19.080;2022-12-11T11:52:57;98866.47;;;2.42;88.86
63654;BME280;49809;47.418;19.080;2022-12-11T11:59:34;98862.16;;;2.36;89.47
63654;BME280;49809;47.418;19.080;2022-12-11T12:02:43;98878.53;;;2.31;89.46
63654;BME280;49809;47.418;19.080;2022-12-11T12:09:05;98881.78;;;2.38;89.63
63654;BME280;49809;47.418;19.080;2022-12-11T12:12:22;98896.22;;;2.29;89.43
63654;BME280;49809;47.418;19.080;2022-12-11T12:15:50;98891.09;;;2.46;88.95
63654;BME280;49809;47.418;19.080;2022-12-11T12:19:07;98888.19;;;2.19;89.89
63654;BME280;49809;47.418;19.080;2022-12-11T12:25:41;98898.84;;;2.29;89.66
63654;BME280;49809;47.418;19.080;2022-12-11T12:35:36;98893.66;;;2.17;90.32
63654;BME280;49809;47.418;19.080;2022-12-11T12:39:04;98893.66;;;2.17;89.98
63654;BME280;49809;47.418;19.080;2022-12-11T12:42:41;98892.78;;;2.00;89.47
63654;BME280;49809;47.418;19.080;2022-12-11T12:49:42;98899.22;;;2.21;89.49
63654;BME280;49809;47.418;19.080;2022-12-11T12:52:51;98906.16;;;2.04;89.54
63654;BME280;49809;47.418;19.080;2022-12-11T12:55:55;98910.25;;;2.11;88.84
63654;BME280;49809;47.418;19.080;2022-12-11T12:59:01;98923.94;;;2.18;88.73
63654;BME280;49809;47.418;19.080;2022-12-11T13:02:12;98937.47;;;2.04;89.76
63654;BME280;49809;47.418;19.080;2022-12-11T13:05:27;98957.91;;;1.95;90.54
63654;BME280;49809;47.418;19.080;2022-12-11T13:08:39;98957.91;;;2.07;89.25
63654;BME280;49809;47.418;19.080;2022-12-11T13:11:44;98965.37;;;2.03;89.58
63654;BME280;49809;47.418;19.080;2022-12-11T13:14:55;98966.19;;;1.92;89.51
63654;BME280;49809;47.418;19.080;2022-12-11T13:18:03;98967.44;;;2.13;89.25
63654;BME280;49809;47.418;19.080;2022-12-11T13:21:32;98964.03;;;2.12;88.50
63654;BME280;49809;47.418;19.080;2022-12-11T13:24:45;98975.38;;;2.06;87.80
63654;BME280;49809;47.418;19.080;2022-12-11T13:27:51;98980.13;;;2.09;89.35
63654;BME280;49809;47.418;19.080;2022-12-11T13:31:00;98977.41;;;2.04;88.81
63654;BME280;49809;47.418;19.080;2022-12-11T13:34:14;98984.12;;;2.00;88.84
63654;BME280;49809;47.418;19.080;2022-12-11T13:40:32;98981.38;;;2.18;88.89
63654;BME280;49809;47.418;19.080;2022-12-11T13:43:37;98984.12;;;2.00;90.31
63654;BME280;49809;47.418;19.080;2022-12-11T13:46:42;98990.13;;;2.01;90.22
63654;BME280;49809;47.418;19.080;2022-12-11T13:49:48;98990.47;;;2.04;90.22
63654;BME280;49809;47.418;19.080;2022-12-11T13:52:58;98996.38;;;1.88;91.63
63654;BME280;49809;47.418;19.080;2022-12-11T13:56:06;99002.41;;;1.89;91.61
63654;BME280;49809;47.418;19.080;2022-12-11T13:59:48;98999.00;;;1.88;90.73
63654;BME280;49809;47.418;19.080;2022-12-11T14:02:55;99009.44;;;1.88;91.50
63654;BME280;49809;47.418;19.080;2022-12-11T14:06:01;99016.66;;;1.74;90.87
63654;BME280;49809;47.418;19.080;2022-12-11T14:09:06;99029.94;;;1.73;90.08
63654;BME280;49809;47.418;19.080;2022-12-11T14:12:18;99031.41;;;1.69;90.20
63654;BME280;49809;47.418;19.080;2022-12-11T14:15:24;99035.72;;;1.75;90.14
63654;BME280;49809;47.418;19.080;2022-12-11T14:18:31;99043.06;;;1.66;91.14
63654;BME280;49809;47.418;19.080;2022-12-11T14:21:35;99045.47;;;1.68;90.68
63654;BME280;49809;47.418;19.080;2022-12-11T14:24:47;99053.16;;;1.63;89.95
63654;BME280;49809;47.418;19.080;2022-12-11T14:27:54;99055.66;;;1.58;90.11
63654;BME280;49809;47.418;19.080;2022-12-11T14:30:58;99056.09;;;1.55;90.17
63654;BME280;49809;47.418;19.080;2022-12-11T14:37:13;99072.97;;;1.52;90.47
63654;BME280;49809;47.418;19.080;2022-12-11T14:40:28;99078.91;;;1.59;91.12
63654;BME280;49809;47.418;19.080;2022-12-11T14:43:41;99079.59;;;1.37;92.93
63654;BME280;49809;47.418;19.080;2022-12-11T14:46:51;99083.16;;;1.42;93.81
63654;BME280;49809;47.418;19.080;2022-12-11T14:50:05;99082.22;;;1.37;95.16
63654;BME280;49809;47.418;19.080;2022-12-11T14:53:16;99089.09;;;1.31;95.52
63654;BME280;49809;47.418;19.080;2022-12-11T14:56:24;99090.66;;;1.20;96.55
63654;BME280;49809;47.418;19.080;2022-12-11T14:59:38;99100.56;;;1.12;97.21
63654;BME280;49809;47.418;19.080;2022-12-11T15:02:56;99098.91;;;1.17;97.57
63654;BME280;49809;47.418;19.080;2022-12-11T15:05:59;99106.50;;;1.19;97.76
63654;BME280;49809;47.418;19.080;2022-12-11T15:09:37;99099.81;;;1.11;97.41
63654;BME280;49809;47.418;19.080;2022-12-11T15:12:44;99105.12;;;1.16;98.09
63654;BME280;49809;47.418;19.080;2022-12-11T15:15:47;99109.50;;;1.04;97.00
63654;BME280;49809;47.418;19.080;2022-12-11T15:18:54;99113.84;;;1.10;97.85
63654;BME280;49809;47.418;19.080;2022-12-11T15:22:07;99114.56;;;0.99;97.63
63654;BME280;49809;47.418;19.080;2022-12-11T15:25:25;99114.84;;;1.09;96.89
63654;BME280;49809;47.418;19.080;2022-12-11T15:28:36;99109.19;;;1.12;95.73
63654;BME280;49809;47.418;19.080;2022-12-11T15:31:39;99121.06;;;1.08;95.17
63654;BME280;49809;47.418;19.080;2022-12-11T15:37:57;99133.59;;;1.00;94.90
63654;BME280;49809;47.418;19.080;2022-12-11T15:41:05;99130.25;;;0.93;93.88
63654;BME280;49809;47.418;19.080;2022-12-11T15:44:18;99128.69;;;0.92;94.01
63654;BME280;49809;47.418;19.080;2022-12-11T15:47:26;99130.25;;;0.93;94.13
63654;BME280;49809;47.418;19.080;2022-12-11T15:50:31;99128.88;;;1.08;93.64
63654;BME280;49809;47.418;19.080;2022-12-11T15:53:37;99128.03;;;0.96;92.89
63654;BME280;49809;47.418;19.080;2022-12-11T15:56:39;99125.78;;;1.00;91.95
63654;BME280;49809;47.418;19.080;2022-12-11T15:59:46;99119.13;;;0.85;91.42
63654;BME280;49809;47.418;19.080;2022-12-11T16:02:50;99122.59;;;0.98;90.47
63654;BME280;49809;47.418;19.080;2022-12-11T16:05:58;99131.78;;;1.00;90.72
63654;BME280;49809;47.418;19.080;2022-12-11T16:09:05;99134.91;;;0.91;91.70
63654;BME280;49809;47.418;19.080;2022-12-11T16:12:11;99143.06;;;0.94;90.85
63654;BME280;49809;47.418;19.080;2022-12-11T16:15:16;99144.16;;;0.86;91.20
63654;BME280;49809;47.418;19.080;2022-12-11T16:18:24;99147.56;;;0.87;90.32
63654;BME280;49809;47.418;19.080;2022-12-11T16:21:27;99149.16;;;0.88;90.29
63654;BME280;49809;47.418;19.080;2022-12-11T16:24:33;99154.50;;;0.93;89.89
63654;BME280;49809;47.418;19.080;2022-12-11T16:27:35;99151.69;;;0.95;89.12
63654;BME280;49809;47.418;19.080;2022-12-11T16:30:41;99152.34;;;0.90;89.16
63654;BME280;49809;47.418;19.080;2022-12-11T16:33:47;99145.75;;;0.87;89.01
63654;BME280;49809;47.418;19.080;2022-12-11T16:36:50;99153.63;;;0.81;89.39
63654;BME280;49809;47.418;19.080;2022-12-11T16:39:53;99152.78;;;0.87;88.79
63654;BME280;49809;47.418;19.080;2022-12-11T16:42:56;99168.41;;;0.87;88.55
63654;BME280;49809;47.418;19.080;2022-12-11T16:46:02;99163.25;;;0.80;88.53
63654;BME280;49809;47.418;19.080;2022-12-11T16:49:06;99159.72;;;0.93;88.30
63654;BME280;49809;47.418;19.080;2022-12-11T16:52:09;99166.72;;;0.74;88.08
63654;BME280;49809;47.418;19.080;2022-12-11T16:55:12;99167.38;;;0.70;88.53
63654;BME280;49809;47.418;19.080;2022-12-11T16:58:16;99166.06;;;0.79;87.92
63654;BME280;49809;47.418;19.080;2022-12-11T17:01:27;99156.81;;;0.83;88.25
63654;BME280;49809;47.418;19.080;2022-12-11T17:04:32;99165.13;;;0.73;88.16
63654;BME280;49809;47.418;19.080;2022-12-11T17:07:37;99170.87;;;0.82;87.59
63654;BME280;49809;47.418;19.080;2022-12-11T17:10:41;99169.13;;;0.76;88.46
63654;BME280;49809;47.418;19.080;2022-12-11T17:13:56;99166.31;;;0.77;88.43
63654;BME280;49809;47.418;19.080;2022-12-11T17:17:00;99160.84;;;0.79;88.34
63654;BME280;49809;47.418;19.080;2022-12-11T17:20:03;99162.03;;;0.83;87.87
63654;BME280;49809;47.418;19.080;2022-12-11T17:23:06;99168.16;;;0.70;87.46
63654;BME280;49809;47.418;19.080;2022-12-11T17:26:18;99169.69;;;0.78;87.25
63654;BME280;49809;47.418;19.080;2022-12-11T17:29:21;99160.31;;;0.77;86.98
63654;BME280;49809;47.418;19.080;2022-12-11T17:32:24;99164.25;;;0.61;86.84
63654;BME280;49809;47.418;19.080;2022-12-11T17:35:27;99167.06;;;0.60;87.42
63654;BME280;49809;47.418;19.080;2022-12-11T17:38:32;99161.56;;;0.68;86.35